sensor_id;sensor_type;location;lat;lon;timestamp;P1;durP1;ratioP1;P2;durP2;ratioP2
69392;SDS011;56582;44.624;20.378;2023-02-26T00:01:39;26.08;;;11.77;;
69392;SDS011;56582;44.624;20.378;2023-02-26T00:04:06;10.57;;;8.07;;
69392;SDS011;56582;44.624;20.378;2023-02-26T00:06:36;15.50;;;10.13;;
69392;SDS011;56582;44.624;20.378;2023-02-26T00:09:03;16.98;;;10.13;;
69392;SDS011;56582;44.624;20.378;2023-02-26T00:11:30;12.82;;;8.70;;
69392;SDS011;56582;44.624;20.378;2023-02-26T00:13:56;11.25;;;7.30;;
69392;SDS011;56582;44.624;20.378;2023-02-26T00:16:32;11.27;;;8.30;;
69392;SDS011;56582;44.624;20.378;2023-02-26T00:19:01;13.40;;;9.20;;
69392;SDS011;56582;44.624;20.378;2023-02-26T00:21:28;13.13;;;8.10;;
69392;SDS011;56582;44.624;20.378;2023-02-26T00:23:55;10.32;;;7.55;;
69392;SDS011;56582;44.624;20.378;2023-02-26T00:26:22;12.70;;;8.25;;
69392;SDS011;56582;44.624;20.378;2023-02-26T00:28:49;10.45;;;8.18;;
69392;SDS011;56582;44.624;20.378;2023-02-26T00:31:15;11.00;;;7.73;;
69392;SDS011;56582;44.624;20.378;2023-02-26T00:33:42;11.48;;;7.85;;
69392;SDS011;56582;44.624;20.378;2023-02-26T00:36:19;10.38;;;7.40;;
69392;SDS011;56582;44.624;20.378;2023-02-26T00:41:38;10.70;;;7.03;;
69392;SDS011;56582;44.624;20.378;2023-02-26T00:44:03;10.93;;;7.60;;
69392;SDS011;56582;44.624;20.378;2023-02-26T00:51:57;9.90;;;6.38;;
69392;SDS011;56582;44.624;20.378;2023-02-26T00:54:26;10.35;;;7.38;;
69392;SDS011;56582;44.624;20.378;2023-02-26T00:56:54;10.45;;;7.53;;
69392;SDS011;56582;44.624;20.378;2023-02-26T00:59:21;10.25;;;7.60;;
69392;SDS011;56582;44.624;20.378;2023-02-26T01:01:48;11.23;;;7.70;;
69392;SDS011;56582;44.624;20.378;2023-02-26T01:04:15;11.07;;;7.30;;
69392;SDS011;56582;44.624;20.378;2023-02-26T01:06:47;11.52;;;7.75;;
69392;SDS011;56582;44.624;20.378;2023-02-26T01:09:16;13.65;;;8.20;;
69392;SDS011;56582;44.624;20.378;2023-02-26T01:11:59;10.55;;;6.97;;
69392;SDS011;56582;44.624;20.378;2023-02-26T01:14:28;11.07;;;7.03;;
69392;SDS011;56582;44.624;20.378;2023-02-26T01:24:57;12.63;;;8.38;;
69392;SDS011;56582;44.624;20.378;2023-02-26T01:27:26;11.97;;;8.53;;
69392;SDS011;56582;44.624;20.378;2023-02-26T01:29:52;11.88;;;8.60;;
69392;SDS011;56582;44.624;20.378;2023-02-26T01:32:18;12.37;;;8.23;;
69392;SDS011;56582;44.624;20.378;2023-02-26T01:34:59;13.10;;;8.93;;
69392;SDS011;56582;44.624;20.378;2023-02-26T01:37:32;12.18;;;7.68;;
69392;SDS011;56582;44.624;20.378;2023-02-26T01:42:45;11.10;;;8.17;;
69392;SDS011;56582;44.624;20.378;2023-02-26T01:45:16;12.50;;;8.55;;
69392;SDS011;56582;44.624;20.378;2023-02-26T01:48:05;12.18;;;7.95;;
69392;SDS011;56582;44.624;20.378;2023-02-26T01:50:38;12.15;;;8.93;;
69392;SDS011;56582;44.624;20.378;2023-02-26T01:53:18;11.57;;;8.35;;
69392;SDS011;56582;44.624;20.378;2023-02-26T01:55:54;12.47;;;7.77;;
69392;SDS011;56582;44.624;20.378;2023-02-26T01:58:21;11.13;;;8.10;;
69392;SDS011;56582;44.624;20.378;2023-02-26T02:00:49;10.43;;;7.00;;
69392;SDS011;56582;44.624;20.378;2023-02-26T02:03:16;12.48;;;8.23;;
69392;SDS011;56582;44.624;20.378;2023-02-26T02:05:47;10.20;;;6.80;;
69392;SDS011;56582;44.624;20.378;2023-02-26T02:08:16;9.77;;;6.57;;
69392;SDS011;56582;44.624;20.378;2023-02-26T02:10:43;8.73;;;6.43;;
69392;SDS011;56582;44.624;20.378;2023-02-26T02:15:52;8.98;;;6.60;;
69392;SDS011;56582;44.624;20.378;2023-02-26T02:21:46;9.93;;;6.90;;
69392;SDS011;56582;44.624;20.378;2023-02-26T02:26:58;10.02;;;6.35;;
69392;SDS011;56582;44.624;20.378;2023-02-26T02:29:52;10.60;;;7.80;;
69392;SDS011;56582;44.624;20.378;2023-02-26T02:32:30;11.82;;;7.78;;
69392;SDS011;56582;44.624;20.378;2023-02-26T02:35:11;13.17;;;8.30;;
69392;SDS011;56582;44.624;20.378;2023-02-26T02:37:56;21.73;;;11.75;;
69392;SDS011;56582;44.624;20.378;2023-02-26T02:40:24;17.48;;;8.82;;
69392;SDS011;56582;44.624;20.378;2023-02-26T02:43:03;21.70;;;11.57;;
69392;SDS011;56582;44.624;20.378;2023-02-26T02:48:16;17.63;;;10.17;;
69392;SDS011;56582;44.624;20.378;2023-02-26T02:51:05;13.32;;;8.32;;
69392;SDS011;56582;44.624;20.378;2023-02-26T02:53:55;8.85;;;6.05;;
69392;SDS011;56582;44.624;20.378;2023-02-26T02:56:29;10.70;;;5.80;;
69392;SDS011;56582;44.624;20.378;2023-02-26T02:59:09;4.88;;;3.88;;
69392;SDS011;56582;44.624;20.378;2023-02-26T03:01:59;6.23;;;4.67;;
69392;SDS011;56582;44.624;20.378;2023-02-26T03:04:30;4.90;;;3.90;;
69392;SDS011;56582;44.624;20.378;2023-02-26T03:06:56;4.35;;;3.95;;
69392;SDS011;56582;44.624;20.378;2023-02-26T03:09:22;4.30;;;3.90;;
69392;SDS011;56582;44.624;20.378;2023-02-26T03:11:47;4.83;;;3.70;;
69392;SDS011;56582;44.624;20.378;2023-02-26T03:14:12;6.40;;;4.73;;
69392;SDS011;56582;44.624;20.378;2023-02-26T03:19:30;4.82;;;3.88;;
69392;SDS011;56582;44.624;20.378;2023-02-26T03:22:33;3.85;;;3.33;;
69392;SDS011;56582;44.624;20.378;2023-02-26T03:28:21;4.30;;;3.37;;
69392;SDS011;56582;44.624;20.378;2023-02-26T03:31:00;5.00;;;3.75;;
69392;SDS011;56582;44.624;20.378;2023-02-26T03:33:37;4.85;;;4.05;;
69392;SDS011;56582;44.624;20.378;2023-02-26T03:36:16;4.55;;;4.03;;
69392;SDS011;56582;44.624;20.378;2023-02-26T03:38:54;4.30;;;3.90;;
69392;SDS011;56582;44.624;20.378;2023-02-26T03:41:29;4.87;;;3.60;;
69392;SDS011;56582;44.624;20.378;2023-02-26T03:44:08;5.93;;;4.20;;
69392;SDS011;56582;44.624;20.378;2023-02-26T03:46:43;6.22;;;4.18;;
69392;SDS011;56582;44.624;20.378;2023-02-26T03:49:13;6.40;;;4.03;;
69392;SDS011;56582;44.624;20.378;2023-02-26T03:51:45;5.20;;;4.43;;
69392;SDS011;56582;44.624;20.378;2023-02-26T03:54:19;5.90;;;4.40;;
69392;SDS011;56582;44.624;20.378;2023-02-26T03:56:48;7.22;;;5.25;;
69392;SDS011;56582;44.624;20.378;2023-02-26T03:59:14;6.50;;;4.65;;
69392;SDS011;56582;44.624;20.378;2023-02-26T04:01:53;7.68;;;4.95;;
69392;SDS011;56582;44.624;20.378;2023-02-26T04:04:33;5.67;;;4.60;;
69392;SDS011;56582;44.624;20.378;2023-02-26T04:07:06;5.53;;;3.80;;
69392;SDS011;56582;44.624;20.378;2023-02-26T04:09:33;6.28;;;4.85;;
69392;SDS011;56582;44.624;20.378;2023-02-26T04:11:59;7.72;;;5.65;;
69392;SDS011;56582;44.624;20.378;2023-02-26T04:14:25;5.77;;;4.33;;
69392;SDS011;56582;44.624;20.378;2023-02-26T04:16:50;5.23;;;4.73;;
69392;SDS011;56582;44.624;20.378;2023-02-26T04:19:16;6.28;;;5.65;;
69392;SDS011;56582;44.624;20.378;2023-02-26T04:21:42;5.80;;;5.00;;
69392;SDS011;56582;44.624;20.378;2023-02-26T04:24:07;5.63;;;4.90;;
69392;SDS011;56582;44.624;20.378;2023-02-26T04:26:33;6.50;;;5.30;;
69392;SDS011;56582;44.624;20.378;2023-02-26T04:28:58;5.57;;;4.97;;
69392;SDS011;56582;44.624;20.378;2023-02-26T04:31:23;9.98;;;5.80;;
69392;SDS011;56582;44.624;20.378;2023-02-26T04:33:49;9.30;;;6.40;;
69392;SDS011;56582;44.624;20.378;2023-02-26T04:36:14;15.57;;;6.37;;
69392;SDS011;56582;44.624;20.378;2023-02-26T04:38:40;6.90;;;5.60;;
69392;SDS011;56582;44.624;20.378;2023-02-26T04:41:05;7.25;;;5.68;;
69392;SDS011;56582;44.624;20.378;2023-02-26T04:43:31;6.73;;;4.67;;
69392;SDS011;56582;44.624;20.378;2023-02-26T04:45:57;6.47;;;4.03;;
69392;SDS011;56582;44.624;20.378;2023-02-26T04:48:22;5.17;;;4.67;;
69392;SDS011;56582;44.624;20.378;2023-02-26T04:50:48;5.35;;;4.75;;
69392;SDS011;56582;44.624;20.378;2023-02-26T04:53:13;4.37;;;3.80;;
69392;SDS011;56582;44.624;20.378;2023-02-26T04:55:39;4.83;;;3.90;;
69392;SDS011;56582;44.624;20.378;2023-02-26T04:58:08;5.38;;;4.53;;
69392;SDS011;56582;44.624;20.378;2023-02-26T05:00:33;5.63;;;4.90;;
69392;SDS011;56582;44.624;20.378;2023-02-26T05:02:59;5.00;;;4.50;;
69392;SDS011;56582;44.624;20.378;2023-02-26T05:05:25;11.55;;;6.00;;
69392;SDS011;56582;44.624;20.378;2023-02-26T05:07:50;8.70;;;4.77;;
69392;SDS011;56582;44.624;20.378;2023-02-26T05:10:19;22.77;;;10.43;;
69392;SDS011;56582;44.624;20.378;2023-02-26T05:12:45;11.30;;;6.40;;
69392;SDS011;56582;44.624;20.378;2023-02-26T05:15:10;5.60;;;5.10;;
69392;SDS011;56582;44.624;20.378;2023-02-26T05:17:36;10.37;;;7.00;;
69392;SDS011;56582;44.624;20.378;2023-02-26T05:20:01;5.23;;;4.73;;
69392;SDS011;56582;44.624;20.378;2023-02-26T05:22:28;15.50;;;8.02;;
69392;SDS011;56582;44.624;20.378;2023-02-26T05:24:53;9.27;;;6.37;;
69392;SDS011;56582;44.624;20.378;2023-02-26T05:27:19;9.52;;;6.75;;
69392;SDS011;56582;44.624;20.378;2023-02-26T05:29:44;11.37;;;7.43;;
69392;SDS011;56582;44.624;20.378;2023-02-26T05:32:10;26.53;;;12.90;;
69392;SDS011;56582;44.624;20.378;2023-02-26T05:34:35;11.93;;;7.55;;
69392;SDS011;56582;44.624;20.378;2023-02-26T05:37:01;20.73;;;9.30;;
69392;SDS011;56582;44.624;20.378;2023-02-26T05:39:27;11.83;;;8.13;;
69392;SDS011;56582;44.624;20.378;2023-02-26T05:41:52;14.55;;;7.85;;
69392;SDS011;56582;44.624;20.378;2023-02-26T05:44:19;7.78;;;5.22;;
69392;SDS011;56582;44.624;20.378;2023-02-26T05:46:45;8.50;;;5.32;;
69392;SDS011;56582;44.624;20.378;2023-02-26T05:49:10;10.07;;;6.43;;
69392;SDS011;56582;44.624;20.378;2023-02-26T05:51:36;10.00;;;6.43;;
69392;SDS011;56582;44.624;20.378;2023-02-26T05:54:02;24.27;;;11.75;;
69392;SDS011;56582;44.624;20.378;2023-02-26T05:56:28;26.03;;;12.17;;
69392;SDS011;56582;44.624;20.378;2023-02-26T05:58:53;21.00;;;10.93;;
69392;SDS011;56582;44.624;20.378;2023-02-26T06:01:19;14.37;;;9.23;;
69392;SDS011;56582;44.624;20.378;2023-02-26T06:03:44;15.87;;;10.13;;
69392;SDS011;56582;44.624;20.378;2023-02-26T06:06:10;21.60;;;11.68;;
69392;SDS011;56582;44.624;20.378;2023-02-26T06:08:40;22.40;;;11.73;;
69392;SDS011;56582;44.624;20.378;2023-02-26T06:11:05;16.38;;;7.82;;
69392;SDS011;56582;44.624;20.378;2023-02-26T06:13:31;18.07;;;9.70;;
69392;SDS011;56582;44.624;20.378;2023-02-26T06:15:56;16.97;;;8.40;;
69392;SDS011;56582;44.624;20.378;2023-02-26T06:18:22;13.82;;;7.25;;
69392;SDS011;56582;44.624;20.378;2023-02-26T06:20:47;16.40;;;7.07;;
69392;SDS011;56582;44.624;20.378;2023-02-26T06:23:13;9.10;;;6.27;;
69392;SDS011;56582;44.624;20.378;2023-02-26T06:25:41;16.02;;;6.13;;
69392;SDS011;56582;44.624;20.378;2023-02-26T06:28:07;19.27;;;8.33;;
69392;SDS011;56582;44.624;20.378;2023-02-26T06:30:33;40.10;;;7.83;;
69392;SDS011;56582;44.624;20.378;2023-02-26T06:32:59;22.17;;;9.60;;
69392;SDS011;56582;44.624;20.378;2023-02-26T06:35:24;66.47;;;8.10;;
69392;SDS011;56582;44.624;20.378;2023-02-26T06:37:50;38.83;;;10.70;;
69392;SDS011;56582;44.624;20.378;2023-02-26T06:40:16;46.27;;;8.80;;
69392;SDS011;56582;44.624;20.378;2023-02-26T06:42:41;92.18;;;14.80;;
69392;SDS011;56582;44.624;20.378;2023-02-26T06:45:07;74.27;;;9.90;;
69392;SDS011;56582;44.624;20.378;2023-02-26T06:47:33;109.88;;;11.63;;
69392;SDS011;56582;44.624;20.378;2023-02-26T06:49:58;22.30;;;8.47;;
69392;SDS011;56582;44.624;20.378;2023-02-26T06:52:23;48.30;;;12.53;;
69392;SDS011;56582;44.624;20.378;2023-02-26T06:54:49;46.28;;;13.18;;
69392;SDS011;56582;44.624;20.378;2023-02-26T06:57:15;61.23;;;10.67;;
69392;SDS011;56582;44.624;20.378;2023-02-26T06:59:40;76.60;;;13.70;;
69392;SDS011;56582;44.624;20.378;2023-02-26T07:02:05;18.33;;;7.43;;
69392;SDS011;56582;44.624;20.378;2023-02-26T07:04:31;45.97;;;10.43;;
69392;SDS011;56582;44.624;20.378;2023-02-26T07:06:56;28.67;;;12.20;;
69392;SDS011;56582;44.624;20.378;2023-02-26T07:09:22;17.60;;;9.80;;
69392;SDS011;56582;44.624;20.378;2023-02-26T07:11:47;35.57;;;10.90;;
69392;SDS011;56582;44.624;20.378;2023-02-26T07:14:13;22.30;;;10.98;;
69392;SDS011;56582;44.624;20.378;2023-02-26T07:16:38;14.13;;;7.87;;
69392;SDS011;56582;44.624;20.378;2023-02-26T07:19:03;26.10;;;9.90;;
69392;SDS011;56582;44.624;20.378;2023-02-26T07:21:29;64.95;;;8.70;;
69392;SDS011;56582;44.624;20.378;2023-02-26T07:23:54;50.00;;;11.37;;
69392;SDS011;56582;44.624;20.378;2023-02-26T07:26:20;13.70;;;6.90;;
69392;SDS011;56582;44.624;20.378;2023-02-26T07:28:45;43.80;;;11.50;;
69392;SDS011;56582;44.624;20.378;2023-02-26T07:31:11;30.73;;;10.55;;
69392;SDS011;56582;44.624;20.378;2023-02-26T07:33:36;79.83;;;25.10;;
69392;SDS011;56582;44.624;20.378;2023-02-26T07:36:03;57.42;;;14.13;;
69392;SDS011;56582;44.624;20.378;2023-02-26T07:38:29;19.35;;;8.32;;
69392;SDS011;56582;44.624;20.378;2023-02-26T07:40:55;70.07;;;11.03;;
69392;SDS011;56582;44.624;20.378;2023-02-26T07:43:21;76.33;;;12.00;;
69392;SDS011;56582;44.624;20.378;2023-02-26T07:45:50;43.53;;;9.32;;
69392;SDS011;56582;44.624;20.378;2023-02-26T07:48:16;19.50;;;6.43;;
69392;SDS011;56582;44.624;20.378;2023-02-26T07:50:42;27.15;;;7.13;;
69392;SDS011;56582;44.624;20.378;2023-02-26T07:53:08;111.50;;;15.50;;
69392;SDS011;56582;44.624;20.378;2023-02-26T07:55:34;31.80;;;11.25;;
69392;SDS011;56582;44.624;20.378;2023-02-26T07:57:59;47.60;;;10.00;;
69392;SDS011;56582;44.624;20.378;2023-02-26T08:00:25;30.90;;;9.97;;
69392;SDS011;56582;44.624;20.378;2023-02-26T08:02:51;47.92;;;8.27;;
69392;SDS011;56582;44.624;20.378;2023-02-26T08:05:16;17.87;;;6.63;;
69392;SDS011;56582;44.624;20.378;2023-02-26T08:07:42;28.58;;;8.00;;
69392;SDS011;56582;44.624;20.378;2023-02-26T08:10:10;18.63;;;7.60;;
69392;SDS011;56582;44.624;20.378;2023-02-26T08:12:36;36.63;;;14.60;;
69392;SDS011;56582;44.624;20.378;2023-02-26T08:15:02;26.50;;;8.23;;
69392;SDS011;56582;44.624;20.378;2023-02-26T08:17:28;44.33;;;6.40;;
69392;SDS011;56582;44.624;20.378;2023-02-26T08:19:54;32.97;;;11.67;;
69392;SDS011;56582;44.624;20.378;2023-02-26T08:22:19;14.47;;;9.10;;
69392;SDS011;56582;44.624;20.378;2023-02-26T08:24:46;20.15;;;8.77;;
69392;SDS011;56582;44.624;20.378;2023-02-26T08:27:11;16.43;;;6.70;;
69392;SDS011;56582;44.624;20.378;2023-02-26T08:29:36;15.50;;;5.83;;
69392;SDS011;56582;44.624;20.378;2023-02-26T08:32:02;38.40;;;12.37;;
69392;SDS011;56582;44.624;20.378;2023-02-26T08:34:27;20.38;;;8.90;;
69392;SDS011;56582;44.624;20.378;2023-02-26T08:36:53;27.87;;;8.73;;
69392;SDS011;56582;44.624;20.378;2023-02-26T08:39:18;15.40;;;8.40;;
69392;SDS011;56582;44.624;20.378;2023-02-26T08:41:44;12.03;;;8.23;;
69392;SDS011;56582;44.624;20.378;2023-02-26T08:44:09;21.53;;;7.97;;
69392;SDS011;56582;44.624;20.378;2023-02-26T08:46:35;21.13;;;10.17;;
69392;SDS011;56582;44.624;20.378;2023-02-26T08:49:00;29.87;;;10.70;;
69392;SDS011;56582;44.624;20.378;2023-02-26T08:51:26;16.52;;;8.60;;
69392;SDS011;56582;44.624;20.378;2023-02-26T08:53:51;10.60;;;8.47;;
69392;SDS011;56582;44.624;20.378;2023-02-26T08:56:17;14.90;;;9.90;;
69392;SDS011;56582;44.624;20.378;2023-02-26T08:58:42;9.57;;;7.40;;
69392;SDS011;56582;44.624;20.378;2023-02-26T09:01:08;19.27;;;9.93;;
69392;SDS011;56582;44.624;20.378;2023-02-26T09:03:34;25.52;;;11.75;;
69392;SDS011;56582;44.624;20.378;2023-02-26T09:06:00;17.90;;;10.07;;
69392;SDS011;56582;44.624;20.378;2023-02-26T09:08:25;28.53;;;12.43;;
69392;SDS011;56582;44.624;20.378;2023-02-26T09:10:51;43.77;;;12.80;;
69392;SDS011;56582;44.624;20.378;2023-02-26T09:13:16;25.63;;;7.90;;
69392;SDS011;56582;44.624;20.378;2023-02-26T09:15:42;17.67;;;9.90;;
69392;SDS011;56582;44.624;20.378;2023-02-26T09:18:07;12.87;;;7.90;;
69392;SDS011;56582;44.624;20.378;2023-02-26T09:20:39;13.73;;;7.18;;
69392;SDS011;56582;44.624;20.378;2023-02-26T09:23:08;14.07;;;8.07;;
69392;SDS011;56582;44.624;20.378;2023-02-26T09:25:34;11.13;;;8.00;;
69392;SDS011;56582;44.624;20.378;2023-02-26T09:28:00;14.57;;;8.60;;
69392;SDS011;56582;44.624;20.378;2023-02-26T09:30:26;15.57;;;8.47;;
69392;SDS011;56582;44.624;20.378;2023-02-26T09:32:51;10.63;;;7.97;;
69392;SDS011;56582;44.624;20.378;2023-02-26T09:35:17;13.70;;;7.07;;
69392;SDS011;56582;44.624;20.378;2023-02-26T09:37:42;17.38;;;8.50;;
69392;SDS011;56582;44.624;20.378;2023-02-26T09:40:10;20.23;;;7.53;;
69392;SDS011;56582;44.624;20.378;2023-02-26T09:45:36;14.63;;;8.80;;
69392;SDS011;56582;44.624;20.378;2023-02-26T09:48:05;16.17;;;10.97;;
69392;SDS011;56582;44.624;20.378;2023-02-26T09:50:37;23.15;;;13.23;;
69392;SDS011;56582;44.624;20.378;2023-02-26T09:53:22;19.90;;;10.45;;
69392;SDS011;56582;44.624;20.378;2023-02-26T09:55:52;26.77;;;13.65;;
69392;SDS011;56582;44.624;20.378;2023-02-26T10:01:18;28.60;;;13.77;;
69392;SDS011;56582;44.624;20.378;2023-02-26T10:12:11;26.75;;;14.18;;
69392;SDS011;56582;44.624;20.378;2023-02-26T10:25:52;31.75;;;16.00;;
69392;SDS011;56582;44.624;20.378;2023-02-26T10:31:12;57.53;;;21.85;;
69392;SDS011;56582;44.624;20.378;2023-02-26T10:36:56;52.22;;;15.65;;
69392;SDS011;56582;44.624;20.378;2023-02-26T10:42:09;47.00;;;22.67;;
69392;SDS011;56582;44.624;20.378;2023-02-26T10:50:14;30.88;;;16.27;;
69392;SDS011;56582;44.624;20.378;2023-02-26T10:52:42;39.08;;;15.18;;
69392;SDS011;56582;44.624;20.378;2023-02-26T10:57:55;58.45;;;24.02;;
69392;SDS011;56582;44.624;20.378;2023-02-26T11:00:28;37.05;;;16.35;;
69392;SDS011;56582;44.624;20.378;2023-02-26T11:02:53;76.80;;;18.00;;
69392;SDS011;56582;44.624;20.378;2023-02-26T11:05:24;51.10;;;14.75;;
69392;SDS011;56582;44.624;20.378;2023-02-26T11:08:00;81.35;;;19.52;;
69392;SDS011;56582;44.624;20.378;2023-02-26T11:11:02;56.15;;;15.13;;
69392;SDS011;56582;44.624;20.378;2023-02-26T11:13:22;32.40;;;13.60;;
69392;SDS011;56582;44.624;20.378;2023-02-26T11:15:51;47.17;;;16.20;;
69392;SDS011;56582;44.624;20.378;2023-02-26T11:18:25;43.03;;;15.50;;
69392;SDS011;56582;44.624;20.378;2023-02-26T11:21:06;94.38;;;17.67;;
69392;SDS011;56582;44.624;20.378;2023-02-26T11:23:33;44.80;;;16.30;;
69392;SDS011;56582;44.624;20.378;2023-02-26T11:26:04;36.23;;;15.23;;
69392;SDS011;56582;44.624;20.378;2023-02-26T11:28:46;61.63;;;20.77;;
69392;SDS011;56582;44.624;20.378;2023-02-26T11:31:17;40.42;;;17.75;;
69392;SDS011;56582;44.624;20.378;2023-02-26T11:33:47;54.20;;;19.35;;
69392;SDS011;56582;44.624;20.378;2023-02-26T11:36:15;29.95;;;10.18;;
69392;SDS011;56582;44.624;20.378;2023-02-26T11:38:44;21.60;;;11.20;;
69392;SDS011;56582;44.624;20.378;2023-02-26T11:41:11;15.80;;;10.50;;
69392;SDS011;56582;44.624;20.378;2023-02-26T11:43:44;16.77;;;10.70;;
69392;SDS011;56582;44.624;20.378;2023-02-26T11:46:13;24.55;;;12.88;;
69392;SDS011;56582;44.624;20.378;2023-02-26T11:48:44;12.25;;;8.52;;
69392;SDS011;56582;44.624;20.378;2023-02-26T11:51:17;33.40;;;13.97;;
69392;SDS011;56582;44.624;20.378;2023-02-26T11:53:48;18.15;;;11.32;;
69392;SDS011;56582;44.624;20.378;2023-02-26T11:56:35;28.33;;;9.20;;
69392;SDS011;56582;44.624;20.378;2023-02-26T11:59:15;17.65;;;10.45;;
69392;SDS011;56582;44.624;20.378;2023-02-26T12:01:43;14.90;;;9.65;;
69392;SDS011;56582;44.624;20.378;2023-02-26T12:04:10;22.27;;;10.20;;
69392;SDS011;56582;44.624;20.378;2023-02-26T12:06:39;24.67;;;13.35;;
69392;SDS011;56582;44.624;20.378;2023-02-26T12:09:10;32.08;;;11.65;;
69392;SDS011;56582;44.624;20.378;2023-02-26T12:14:38;47.43;;;17.33;;
69392;SDS011;56582;44.624;20.378;2023-02-26T12:17:17;23.55;;;9.02;;
69392;SDS011;56582;44.624;20.378;2023-02-26T12:30:54;13.05;;;8.68;;
69392;SDS011;56582;44.624;20.378;2023-02-26T12:41:34;29.77;;;13.25;;
69392;SDS011;56582;44.624;20.378;2023-02-26T12:44:15;31.20;;;9.38;;
69392;SDS011;56582;44.624;20.378;2023-02-26T12:50:20;32.30;;;12.07;;
69392;SDS011;56582;44.624;20.378;2023-02-26T12:55:33;41.65;;;11.82;;
69392;SDS011;56582;44.624;20.378;2023-02-26T13:01:18;38.27;;;17.07;;
69392;SDS011;56582;44.624;20.378;2023-02-26T13:06:59;44.83;;;10.68;;
69392;SDS011;56582;44.624;20.378;2023-02-26T13:14:55;34.87;;;12.13;;
69392;SDS011;56582;44.624;20.378;2023-02-26T13:17:26;43.35;;;11.50;;
69392;SDS011;56582;44.624;20.378;2023-02-26T13:19:57;45.28;;;14.52;;
69392;SDS011;56582;44.624;20.378;2023-02-26T13:22:31;23.17;;;12.60;;
69392;SDS011;56582;44.624;20.378;2023-02-26T13:25:47;52.10;;;12.80;;
69392;SDS011;56582;44.624;20.378;2023-02-26T13:28:19;31.07;;;9.57;;
69392;SDS011;56582;44.624;20.378;2023-02-26T13:30:55;48.33;;;10.80;;
69392;SDS011;56582;44.624;20.378;2023-02-26T13:33:29;65.93;;;14.88;;
69392;SDS011;56582;44.624;20.378;2023-02-26T13:35:58;42.38;;;12.55;;
69392;SDS011;56582;44.624;20.378;2023-02-26T13:46:38;104.40;;;18.85;;
69392;SDS011;56582;44.624;20.378;2023-02-26T13:49:18;174.88;;;19.45;;
69392;SDS011;56582;44.624;20.378;2023-02-26T13:51:54;111.28;;;16.83;;
69392;SDS011;56582;44.624;20.378;2023-02-26T13:59:36;92.03;;;20.20;;
69392;SDS011;56582;44.624;20.378;2023-02-26T14:10:28;79.85;;;25.05;;
69392;SDS011;56582;44.624;20.378;2023-02-26T14:13:30;89.03;;;25.70;;
69392;SDS011;56582;44.624;20.378;2023-02-26T14:32:32;144.18;;;34.40;;
69392;SDS011;56582;44.624;20.378;2023-02-26T14:37:48;98.45;;;21.95;;
69392;SDS011;56582;44.624;20.378;2023-02-26T14:40:23;143.70;;;36.40;;
69392;SDS011;56582;44.624;20.378;2023-02-26T14:42:59;174.87;;;36.93;;
69392;SDS011;56582;44.624;20.378;2023-02-26T14:45:31;184.88;;;33.08;;
69392;SDS011;56582;44.624;20.378;2023-02-26T14:48:01;121.53;;;30.67;;
69392;SDS011;56582;44.624;20.378;2023-02-26T14:50:33;169.70;;;36.08;;
69392;SDS011;56582;44.624;20.378;2023-02-26T15:01:55;70.60;;;20.05;;
69392;SDS011;56582;44.624;20.378;2023-02-26T15:10:02;119.77;;;29.93;;
69392;SDS011;56582;44.624;20.378;2023-02-26T15:23:43;116.17;;;32.57;;
69392;SDS011;56582;44.624;20.378;2023-02-26T15:26:16;224.90;;;44.95;;
69392;SDS011;56582;44.624;20.378;2023-02-26T15:28:45;156.13;;;35.70;;
69392;SDS011;56582;44.624;20.378;2023-02-26T15:31:12;93.43;;;30.15;;
69392;SDS011;56582;44.624;20.378;2023-02-26T15:33:37;59.80;;;22.93;;
69392;SDS011;56582;44.624;20.378;2023-02-26T15:36:08;52.47;;;24.08;;
69392;SDS011;56582;44.624;20.378;2023-02-26T15:38:39;63.95;;;26.55;;
69392;SDS011;56582;44.624;20.378;2023-02-26T15:41:10;84.38;;;30.00;;
69392;SDS011;56582;44.624;20.378;2023-02-26T15:43:36;144.27;;;33.95;;
69392;SDS011;56582;44.624;20.378;2023-02-26T15:46:07;83.27;;;26.70;;
69392;SDS011;56582;44.624;20.378;2023-02-26T15:48:37;59.58;;;20.83;;
69392;SDS011;56582;44.624;20.378;2023-02-26T15:51:07;119.05;;;36.78;;
69392;SDS011;56582;44.624;20.378;2023-02-26T15:53:35;141.32;;;40.53;;
69392;SDS011;56582;44.624;20.378;2023-02-26T15:56:16;93.03;;;25.83;;
69392;SDS011;56582;44.624;20.378;2023-02-26T15:58:47;89.43;;;28.30;;
69392;SDS011;56582;44.624;20.378;2023-02-26T16:01:19;97.38;;;30.45;;
69392;SDS011;56582;44.624;20.378;2023-02-26T16:03:46;99.57;;;31.42;;
69392;SDS011;56582;44.624;20.378;2023-02-26T16:06:17;82.15;;;27.55;;
69392;SDS011;56582;44.624;20.378;2023-02-26T16:08:44;68.20;;;27.98;;
69392;SDS011;56582;44.624;20.378;2023-02-26T16:11:10;80.60;;;27.73;;
69392;SDS011;56582;44.624;20.378;2023-02-26T16:13:38;80.53;;;29.85;;
69392;SDS011;56582;44.624;20.378;2023-02-26T16:16:14;78.68;;;30.85;;
69392;SDS011;56582;44.624;20.378;2023-02-26T16:18:47;85.23;;;27.93;;
69392;SDS011;56582;44.624;20.378;2023-02-26T16:21:18;68.88;;;26.85;;
69392;SDS011;56582;44.624;20.378;2023-02-26T16:23:52;91.03;;;25.17;;
69392;SDS011;56582;44.624;20.378;2023-02-26T16:26:24;87.13;;;29.70;;
69392;SDS011;56582;44.624;20.378;2023-02-26T16:28:56;96.27;;;32.63;;
69392;SDS011;56582;44.624;20.378;2023-02-26T16:31:25;60.53;;;25.65;;
69392;SDS011;56582;44.624;20.378;2023-02-26T16:34:00;103.57;;;26.48;;
69392;SDS011;56582;44.624;20.378;2023-02-26T16:36:39;97.72;;;34.38;;
69392;SDS011;56582;44.624;20.378;2023-02-26T16:41:32;72.03;;;26.00;;
69392;SDS011;56582;44.624;20.378;2023-02-26T16:44:01;93.25;;;27.35;;
69392;SDS011;56582;44.624;20.378;2023-02-26T16:51:46;192.35;;;67.43;;
69392;SDS011;56582;44.624;20.378;2023-02-26T16:54:19;88.65;;;39.88;;
69392;SDS011;56582;44.624;20.378;2023-02-26T16:56:55;71.97;;;28.02;;
69392;SDS011;56582;44.624;20.378;2023-02-26T16:59:36;52.40;;;23.30;;
69392;SDS011;56582;44.624;20.378;2023-02-26T17:04:53;76.95;;;32.58;;
69392;SDS011;56582;44.624;20.378;2023-02-26T17:07:25;58.58;;;28.20;;
69392;SDS011;56582;44.624;20.378;2023-02-26T17:10:06;63.67;;;26.63;;
69392;SDS011;56582;44.624;20.378;2023-02-26T17:12:44;57.63;;;27.63;;
69392;SDS011;56582;44.624;20.378;2023-02-26T17:15:20;80.45;;;27.55;;
69392;SDS011;56582;44.624;20.378;2023-02-26T17:17:52;133.35;;;28.85;;
69392;SDS011;56582;44.624;20.378;2023-02-26T17:20:21;101.05;;;26.50;;
69392;SDS011;56582;44.624;20.378;2023-02-26T17:22:48;79.05;;;24.60;;
69392;SDS011;56582;44.624;20.378;2023-02-26T17:25:15;83.67;;;24.57;;
69392;SDS011;56582;44.624;20.378;2023-02-26T17:27:43;61.03;;;24.33;;
69392;SDS011;56582;44.624;20.378;2023-02-26T17:30:10;90.00;;;26.75;;
69392;SDS011;56582;44.624;20.378;2023-02-26T17:32:40;64.22;;;22.90;;
69392;SDS011;56582;44.624;20.378;2023-02-26T17:35:06;67.03;;;18.23;;
69392;SDS011;56582;44.624;20.378;2023-02-26T17:37:32;77.70;;;21.33;;
69392;SDS011;56582;44.624;20.378;2023-02-26T17:39:59;71.35;;;20.17;;
69392;SDS011;56582;44.624;20.378;2023-02-26T17:42:25;63.60;;;23.10;;
69392;SDS011;56582;44.624;20.378;2023-02-26T17:44:51;91.63;;;23.73;;
69392;SDS011;56582;44.624;20.378;2023-02-26T17:47:21;61.22;;;25.02;;